Time;durP1;ratioP1;P1;durP2;ratioP2;P2;SDS_P1;SDS_P2;PMS_P1;PMS_P2;Temp;Humidity;BMP_temperature;BMP_pressure;BME280_temperature;BME280_humidity;BME280_pressure;Samples;Min_cycle;Max_cycle;Signal;HPM_P1;HPM_P2
2021/05/30 00:07:23;;;;;;;11.52;7.07;;;12.40;99.90;;;;;;6723217;88;20285;-80
2021/05/30 00:17:24;;;;;;;11.80;7.50;;;12.20;99.90;;;;;;6723165;88;20297;-80
2021/05/30 00:27:25;;;;;;;13.38;8.10;;;12.10;99.90;;;;;;6721809;88;20726;-80
2021/05/30 00:37:26;;;;;;;12.48;7.78;;;12.00;99.90;;;;;;6724214;88;20223;-79
2021/05/30 00:47:26;;;;;;;9.73;6.53;;;11.70;99.90;;;;;;6728512;88;20217;-82
2021/05/30 00:57:27;;;;;;;11.57;6.68;;;11.60;99.90;;;;;;6726539;88;20640;-81
2021/05/30 01:07:27;;;;;;;11.32;7.32;;;11.50;99.90;;;;;;6729480;88;20312;-82
2021/05/30 01:17:29;;;;;;;13.52;7.75;;;11.30;99.90;;;;;;6725504;88;20214;-81
2021/05/30 01:27:30;;;;;;;9.50;6.70;;;11.10;99.90;;;;;;6725297;88;20182;-80
2021/05/30 01:37:31;;;;;;;11.27;6.90;;;11.10;99.90;;;;;;6725107;88;20202;-80
2021/05/30 01:47:36;;;;;;;10.48;7.20;;;10.90;99.90;;;;;;6725398;88;20208;-81
2021/05/30 01:57:44;;;;;;;12.18;7.45;;;10.80;99.90;;;;;;6724832;88;20288;-80
2021/05/30 02:07:46;;;;;;;11.63;7.62;;;10.70;99.90;;;;;;6725718;88;20167;-82
2021/05/30 02:17:47;;;;;;;11.82;7.20;;;10.60;99.90;;;;;;6726855;88;20185;-81
2021/05/30 02:27:50;;;;;;;15.35;8.13;;;10.60;99.90;;;;;;6730480;88;20181;-80
2021/05/30 02:37:51;;;;;;;12.23;8.07;;;10.30;99.90;;;;;;6728020;88;20329;-83
2021/05/30 02:47:52;;;;;;;14.32;7.75;;;10.10;99.90;;;;;;6727366;88;20186;-80
2021/05/30 02:57:53;;;;;;;12.03;7.47;;;10.10;99.90;;;;;;6727075;88;20228;-81
2021/05/30 03:07:53;;;;;;;13.68;7.40;;;10.00;99.90;;;;;;6728310;88;20213;-81
2021/05/30 03:17:54;;;;;;;12.40;7.07;;;9.90;99.90;;;;;;6730974;88;20327;-82
2021/05/30 03:27:54;;;;;;;12.05;6.93;;;9.70;99.90;;;;;;6730992;88;20181;-81
2021/05/30 03:37:57;;;;;;;14.60;7.87;;;9.50;99.90;;;;;;6727682;88;20174;-81
2021/05/30 03:47:57;;;;;;;10.80;7.12;;;9.30;99.90;;;;;;6728066;88;20206;-80
2021/05/30 03:57:59;;;;;;;11.93;7.73;;;9.30;99.90;;;;;;6731890;88;20193;-80
2021/05/30 04:08:00;;;;;;;13.15;7.85;;;9.30;99.90;;;;;;6730634;88;20224;-81
2021/05/30 04:18:01;;;;;;;15.15;8.18;;;9.20;99.90;;;;;;6729948;88;20186;-80
2021/05/30 04:28:01;;;;;;;14.63;7.57;;;9.40;99.90;;;;;;6730215;88;20681;-80
2021/05/30 04:38:02;;;;;;;14.45;8.20;;;9.50;99.90;;;;;;6730067;88;20685;-80
2021/05/30 04:48:03;;;;;;;14.23;7.93;;;9.70;99.90;;;;;;6745435;88;20196;-80
2021/05/30 04:58:03;;;;;;;14.18;8.20;;;9.70;99.90;;;;;;6744268;88;20535;-81
2021/05/30 05:08:04;;;;;;;12.93;8.27;;;9.90;99.90;;;;;;6726190;88;20282;-81
2021/05/30 05:18:19;;;;;;;16.50;8.65;;;10.00;99.90;;;;;;6728332;88;20213;-80
2021/05/30 05:28:21;;;;;;;13.48;8.45;;;10.20;99.90;;;;;;6728797;88;20191;-81
2021/05/30 05:38:22;;;;;;;15.10;8.77;;;10.40;99.90;;;;;;6728671;88;20691;-81
2021/05/30 05:48:23;;;;;;;14.02;8.77;;;10.60;99.90;;;;;;6727295;88;20186;-82
2021/05/30 05:58:24;;;;;;;12.68;7.93;;;10.90;99.90;;;;;;6726593;88;20780;-79
2021/05/30 06:08:24;;;;;;;12.35;7.80;;;11.80;99.90;;;;;;6724534;88;20204;-81
2021/05/30 06:18:27;;;;;;;14.70;7.78;;;13.20;99.90;;;;;;6723021;88;20187;-81
2021/05/30 06:28:28;;;;;;;13.10;7.62;;;14.00;99.90;;;;;;6721555;88;20223;-81
2021/05/30 06:38:28;;;;;;;12.90;7.40;;;14.80;99.90;;;;;;6720628;88;20198;-79
2021/05/30 06:48:29;;;;;;;9.98;6.40;;;15.50;99.90;;;;;;6719178;88;20653;-79
2021/05/30 06:58:29;;;;;;;11.23;7.15;;;16.10;99.90;;;;;;6719679;88;21925;-80
2021/05/30 07:08:30;;;;;;;11.70;6.10;;;17.20;99.90;;;;;;6735620;88;20188;-81
2021/05/30 07:18:31;;;;;;;10.90;6.20;;;18.10;99.90;;;;;;6733053;88;20184;-81
2021/05/30 07:28:33;;;;;;;8.20;5.45;;;18.60;99.90;;;;;;6735888;88;21105;-81
2021/05/30 07:38:35;;;;;;;7.65;5.37;;;19.20;99.90;;;;;;6737577;88;20175;-78
2021/05/30 07:48:35;;;;;;;6.95;5.28;;;19.60;99.90;;;;;;6719884;88;20200;-78
2021/05/30 07:58:36;;;;;;;8.27;5.37;;;19.60;99.80;;;;;;6724642;88;20661;-77
2021/05/30 08:08:36;;;;;;;9.82;5.28;;;19.60;99.90;;;;;;6724509;88;20221;-77
2021/05/30 08:18:37;;;;;;;7.95;4.85;;;20.90;97.60;;;;;;6722114;88;20373;-78
2021/05/30 08:28:38;;;;;;;5.82;4.53;;;21.20;96.80;;;;;;6720477;88;20301;-76
2021/05/30 08:38:39;;;;;;;7.50;4.37;;;21.50;95.60;;;;;;6723294;88;20199;-79
2021/05/30 08:48:40;;;;;;;5.90;4.25;;;21.80;94.40;;;;;;6727792;88;20217;-76
2021/05/30 08:58:42;;;;;;;5.35;4.00;;;23.20;91.70;;;;;;6715773;88;20229;-78
2021/05/30 09:08:43;;;;;;;5.32;3.72;;;23.50;88.50;;;;;;6721305;88;20190;-78
2021/05/30 09:18:44;;;;;;;5.60;3.65;;;24.10;84.40;;;;;;6728077;88;20216;-76
2021/05/30 09:29:06;;;;;;;3.70;2.87;;;25.00;76.90;;;;;;6717685;88;20256;-75
2021/05/30 09:39:06;;;;;;;4.75;3.00;;;25.20;72.90;;;;;;6724527;88;20185;-77
2021/05/30 09:49:07;;;;;;;4.05;2.80;;;25.80;71.20;;;;;;6723501;88;20308;-78
2021/05/30 10:09:13;;;;;;;3.67;2.50;;;26.80;63.00;;;;;;6722708;88;20228;-80
2021/05/30 10:19:28;;;;;;;2.90;2.20;;;26.40;60.10;;;;;;6713280;88;20213;-77
2021/05/30 10:29:29;;;;;;;4.65;2.42;;;25.30;60.20;;;;;;6710954;88;20186;-78
2021/05/30 10:39:29;;;;;;;3.03;2.10;;;27.00;61.50;;;;;;6713543;88;20211;-79
2021/05/30 10:50:09;;;;;;;2.50;1.92;;;27.80;56.50;;;;;;6722527;88;20230;-79
2021/05/30 11:00:19;;;;;;;2.87;1.90;;;28.50;53.60;;;;;;6724086;88;20196;-78
2021/05/30 11:10:20;;;;;;;2.00;1.73;;;29.00;53.20;;;;;;6702319;88;20245;-77
2021/05/30 11:20:43;;;;;;;4.25;1.90;;;27.40;50.90;;;;;;6707136;88;20218;-78
2021/05/30 11:30:49;;;;;;;2.78;2.00;;;28.40;54.40;;;;;;6708576;88;20284;-76
2021/05/30 11:40:50;;;;;;;2.78;1.83;;;26.90;51.50;;;;;;6719994;88;20560;-76
2021/05/30 11:50:53;;;;;;;3.15;1.75;;;25.90;55.00;;;;;;6717482;88;20228;-77
2021/05/30 12:00:59;;;;;;;4.32;2.10;;;28.10;53.50;;;;;;6716315;88;20182;-77
2021/05/30 12:11:03;;;;;;;5.22;2.00;;;27.20;53.70;;;;;;6720409;88;20309;-78
2021/05/30 12:21:04;;;;;;;2.30;2.00;;;27.60;52.80;;;;;;6731967;88;20180;-79
2021/05/30 12:31:06;;;;;;;2.23;1.77;;;28.80;52.50;;;;;;6728571;88;20205;-78
2021/05/30 12:41:13;;;;;;;2.97;1.90;;;29.80;51.30;;;;;;6708069;88;20183;-81
2021/05/30 12:51:18;;;;;;;2.62;2.00;;;29.90;50.70;;;;;;6711654;88;20210;-80
2021/05/30 13:01:21;;;;;;;3.55;2.05;;;28.60;49.70;;;;;;6711107;88;20189;-79
2021/05/30 13:11:30;;;;;;;3.50;2.10;;;29.20;51.40;;;;;;6715350;88;20178;-80
2021/05/30 13:21:31;;;;;;;2.50;1.80;;;27.80;51.60;;;;;;6717526;88;20163;-79
2021/05/30 13:31:32;;;;;;;3.65;2.05;;;28.30;51.20;;;;;;6723082;88;20182;-80
2021/05/30 13:41:32;;;;;;;4.07;1.85;;;29.90;50.00;;;;;;6718499;88;20734;-79
2021/05/30 13:51:33;;;;;;;2.93;1.80;;;30.60;48.10;;;;;;6707459;88;20329;-80
2021/05/30 14:01:33;;;;;;;3.12;1.90;;;30.90;48.40;;;;;;6711429;88;20198;-80
2021/05/30 14:11:35;;;;;;;5.15;1.90;;;30.40;48.50;;;;;;6710734;88;20207;-81
2021/05/30 14:21:36;;;;;;;4.18;2.10;;;28.20;48.30;;;;;;6711765;88;20210;-79
2021/05/30 14:31:36;;;;;;;3.03;2.10;;;26.50;50.90;;;;;;6720873;88;20691;-79
2021/05/30 14:41:39;;;;;;;3.20;1.80;;;27.60;51.70;;;;;;6725661;88;20272;-80
2021/05/30 14:51:40;;;;;;;2.80;1.90;;;28.70;49.80;;;;;;6729578;88;20192;-80
2021/05/30 15:01:40;;;;;;;3.27;1.90;;;29.90;48.30;;;;;;6731457;88;20685;-79
2021/05/30 15:11:41;;;;;;;2.70;1.75;;;27.80;49.10;;;;;;6734885;88;20759;-80
2021/05/30 15:21:43;;;;;;;2.85;2.10;;;27.30;49.50;;;;;;6742326;88;20205;-79
2021/05/30 15:31:48;;;;;;;3.03;1.90;;;27.90;49.90;;;;;;6741392;88;20198;-81
2021/05/30 15:41:48;;;;;;;4.30;1.90;;;28.30;50.00;;;;;;6734530;88;20527;-81
2021/05/30 15:51:49;;;;;;;4.93;2.10;;;27.40;49.30;;;;;;6727457;88;20215;-80
2021/05/30 16:01:49;;;;;;;3.35;2.08;;;27.30;48.60;;;;;;6715000;88;20202;-78
2021/05/30 16:11:50;;;;;;;2.47;1.70;;;27.00;50.80;;;;;;6728968;88;20193;-77
2021/05/30 16:21:54;;;;;;;2.90;1.73;;;26.60;49.40;;;;;;6727685;88;20209;-78
2021/05/30 16:31:54;;;;;;;3.12;1.98;;;27.30;49.00;;;;;;6726048;88;20198;-78
2021/05/30 16:41:55;;;;;;;5.32;3.40;;;26.30;50.90;;;;;;6726838;88;20190;-79
2021/05/30 16:51:55;;;;;;;2.78;1.92;;;25.50;51.20;;;;;;6720331;88;20200;-78
2021/05/30 17:01:56;;;;;;;2.70;1.87;;;25.20;51.60;;;;;;6727471;88;20310;-79
2021/05/30 17:11:57;;;;;;;2.78;1.87;;;24.70;51.90;;;;;;6729512;88;20194;-78
2021/05/30 17:21:57;;;;;;;38.15;24.42;;;24.40;52.60;;;;;;6718544;88;20377;-80
2021/05/30 17:31:58;;;;;;;7.03;5.10;;;24.60;53.10;;;;;;6724276;88;20244;-79
2021/05/30 17:41:59;;;;;;;36.25;29.63;;;25.00;53.50;;;;;;6717847;88;20717;-79
2021/05/30 17:51:59;;;;;;;3.75;1.90;;;26.10;51.30;;;;;;6719474;88;20582;-78
2021/05/30 18:02:00;;;;;;;4.15;1.90;;;25.40;52.00;;;;;;6720522;88;20198;-78
2021/05/30 18:12:00;;;;;;;2.75;1.90;;;23.80;54.60;;;;;;6720173;88;20218;-78
2021/05/30 18:22:02;;;;;;;69.30;34.03;;;23.70;55.00;;;;;;6712390;88;20690;-78
2021/05/30 18:32:03;;;;;;;4.68;2.40;;;23.70;54.70;;;;;;6712268;88;20194;-78
2021/05/30 18:42:04;;;;;;;5.05;2.05;;;24.30;54.10;;;;;;6716662;88;20199;-77
2021/05/30 18:52:05;;;;;;;4.20;2.10;;;22.90;56.80;;;;;;6722245;88;20208;-78
2021/05/30 19:02:07;;;;;;;4.05;2.12;;;22.50;58.10;;;;;;6717882;88;20619;-77
2021/05/30 19:12:08;;;;;;;4.30;2.00;;;22.10;58.70;;;;;;6719848;88;20173;-76
2021/05/30 19:22:09;;;;;;;3.03;2.10;;;21.80;59.70;;;;;;6714861;88;20750;-77
2021/05/30 19:32:09;;;;;;;3.40;2.20;;;21.30;60.80;;;;;;6711489;88;20322;-77
2021/05/30 19:42:10;;;;;;;5.00;2.05;;;20.90;62.20;;;;;;6715129;88;20202;-78
2021/05/30 19:52:10;;;;;;;5.15;2.20;;;20.40;63.80;;;;;;6721703;88;20223;-78
2021/05/30 20:02:11;;;;;;;3.50;2.20;;;20.20;65.40;;;;;;6728786;88;20320;-78
2021/05/30 20:12:12;;;;;;;3.92;2.08;;;19.90;67.60;;;;;;6722950;88;20185;-78
2021/05/30 20:22:13;;;;;;;3.45;2.28;;;19.60;66.70;;;;;;6716550;88;20182;-78
2021/05/30 20:32:13;;;;;;;4.10;2.83;;;19.20;70.80;;;;;;6711308;88;20227;-79
2021/05/30 20:42:15;;;;;;;4.70;2.55;;;19.10;71.10;;;;;;6725470;88;20182;-79
2021/05/30 20:52:17;;;;;;;4.22;2.30;;;18.50;77.40;;;;;;6721521;88;20215;-80
2021/05/30 21:02:18;;;;;;;5.07;2.50;;;18.10;81.00;;;;;;6726422;88;20182;-79
2021/05/30 21:12:19;;;;;;;3.90;2.47;;;17.70;85.80;;;;;;6722642;88;20207;-80
2021/05/30 21:22:19;;;;;;;5.12;2.60;;;17.40;90.40;;;;;;6730793;88;21004;-80
2021/05/30 21:32:20;;;;;;;3.77;2.57;;;17.20;93.10;;;;;;6734113;88;20190;-79
2021/05/30 21:42:23;;;;;;;4.35;2.97;;;17.40;92.10;;;;;;6724437;88;20248;-80
2021/05/30 21:52:25;;;;;;;5.55;2.42;;;16.90;95.30;;;;;;6722501;88;20300;-79
2021/05/30 22:02:26;;;;;;;4.82;2.70;;;16.60;96.30;;;;;;6720739;88;20214;-79
2021/05/30 22:12:26;;;;;;;6.05;3.03;;;16.30;97.80;;;;;;6729480;88;20184;-78
2021/05/30 22:22:27;;;;;;;5.53;2.72;;;16.10;99.90;;;;;;6727976;88;20284;-78
2021/05/30 22:32:28;;;;;;;4.90;2.80;;;15.80;99.90;;;;;;6726410;88;20259;-78
2021/05/30 22:42:28;;;;;;;3.50;2.53;;;15.70;99.90;;;;;;6726234;88;20204;-78
2021/05/30 22:52:29;;;;;;;5.10;2.47;;;15.60;99.90;;;;;;6729236;88;20189;-79
2021/05/30 23:02:29;;;;;;;5.65;2.80;;;15.30;99.90;;;;;;6728863;88;20190;-78
2021/05/30 23:12:34;;;;;;;6.03;2.75;;;15.10;99.90;;;;;;6719923;88;20199;-78
2021/05/30 23:22:35;;;;;;;6.85;2.65;;;15.30;99.90;;;;;;6717364;88;20218;-78
2021/05/30 23:32:35;;;;;;;5.00;3.10;;;14.90;99.90;;;;;;6700535;88;20789;-78
2021/05/30 23:42:36;;;;;;;4.33;2.70;;;14.80;99.90;;;;;;6699896;88;20201;-79
2021/05/30 23:52:37;;;;;;;4.87;2.70;;;14.50;99.90;;;;;;6700126;88;20520;-79
